Data ze zpráv METAR

Na této stránce "Data ze zpráv METAR" si můžete prohlédnout aktuální data o počasí z českých letišť.

LKKB - Kbely, Czech Republic
Distance from station: JJZ 98km
Aktualizováno v: 22/08/2017 03:00
Jasno
Jasno
 Vítr od JJZ
Vítr: JJZ 9 km/h
Teplota vzduchu: 10°C
Wind Chill: 9°C
Rosný bod: 8°C
Vlhkost: 88%
Tlak vzduchu: 1022 hPa
Souhrn: Jasno
Visibility: greater than 10 km
2017/08/22 01:00 LKKB 220100Z 20005KT 160V240 CAVOK 10/08 Q1022
LKPR - Prague/Ruzyne, Czech Republic
Distance from station: JJZ 108km
Aktualizováno v: 22/08/2017 03:00
Jasno
Jasno
 Vítr od JZ
Vítr: JZ 9 km/h
Teplota vzduchu: 9°C
Wind Chill: 7°C
Rosný bod: 6°C
Vlhkost: 82%
Tlak vzduchu: 1022 hPa
Souhrn: Jasno
Visibility: greater than 10 km
2017/08/22 01:00 LKPR 220100Z 22005KT CAVOK 09/06 Q1022 NOSIG
 
LKPD - Pardubice, Czech Republic
Distance from station: JJV 111km
Aktualizováno v: 22/08/2017 03:00
Jasno
Jasno
 Vítr od Z
Vítr: Z 7 km/h
Teplota vzduchu: 12°C
Rosný bod: 8°C
Vlhkost: 77%
Tlak vzduchu: 1022 hPa
Souhrn: Jasno
Visibility: greater than 10 km
2017/08/22 01:00 LKPD 220100Z 26004KT CAVOK 12/08 Q1022 RMK BLU
LKCV - Caslav, Czech Republic
Distance from station: JJV 113km
Aktualizováno v: 22/08/2017 03:00
Jasno
Jasno
 Vítr od JV
Vítr: JV 6 km/h
Teplota vzduchu: 11°C
Rosný bod: 8°C
Vlhkost: 82%
Tlak vzduchu: 1022 hPa
Souhrn: Jasno
Visibility: greater than 10 km
2017/08/22 01:00 LKCV 220100Z 14003KT CAVOK 11/08 Q1022 NOSIG RMK BLU+ BLU
 
LKKV - Karlovy Vary, Czech Republic
Distance from station: ZJZ 173km
Aktualizováno v: 22/08/2017 03:00
Few Clouds
Few Clouds
 Vítr od JJZ
Vítr: JJZ 4 km/h
Teplota vzduchu: 6°C
Rosný bod: 5°C
Vlhkost: 93%
Tlak vzduchu: 1023 hPa
Clouds: Few Clouds
Visibility: 10 km
Cloud details: Few Clouds 1402 m
2017/08/22 01:00 LKKV 220100Z 20002KT 9999 FEW046 06/05 Q1023
LKLN - Plzen Line, Czech Republic
Distance from station: JZ 189km
Aktualizováno v: 22/08/2017 03:00
Jasno
Jasno
 Vítr od calm
Vítr: Bezvětří
Teplota vzduchu: 9°C
Rosný bod: 8°C
Vlhkost: 94%
Tlak vzduchu: 1023 hPa
Souhrn: Jasno
Visibility: greater than 10 km
2017/08/22 01:00 LKLN 220100Z AUTO 00000KT CAVOK 09/08 Q1023
 
LKNA - Namest, Czech Republic
Distance from station: JJV 209km
Aktualizováno v: 22/08/2017 03:00
Jasno
Jasno
 Vítr od SZ
Vítr: SZ 11 km/h
Teplota vzduchu: 11°C
Rosný bod: 6°C
Vlhkost: 72%
Tlak vzduchu: 1022 hPa
Souhrn: Jasno
Visibility: greater than 10 km
2017/08/22 01:00 LKNA 220100Z 31006KT CAVOK 11/06 Q1022 RMK BLU
LKTB - Brno/Turany, Czech Republic
Distance from station: JJV 230km
Aktualizováno v: 22/08/2017 03:00
Jasno
Jasno
 Vítr od calm
Vítr: Bezvětří
Teplota vzduchu: 12°C
Rosný bod: 7°C
Vlhkost: 72%
Tlak vzduchu: 1022 hPa
Souhrn: Jasno
Visibility: greater than 10 km
2017/08/22 01:00 LKTB 220100Z 00000KT CAVOK 12/07 Q1022 NOSIG